createdAt,value
2018-09-09T00:01:37.896Z,4.93
2018-09-09T00:04:06.204Z,6.77
2018-09-09T00:06:40.066Z,5.27
2018-09-09T00:09:16.724Z,5.70
2018-09-09T00:11:49.520Z,4.73
2018-09-09T00:14:22.280Z,6.87
2018-09-09T00:16:56.565Z,4.67
2018-09-09T00:19:29.259Z,4.43
2018-09-09T00:22:02.516Z,5.57
2018-09-09T00:24:35.519Z,5.27
2018-09-09T00:27:09.238Z,4.70
2018-09-09T00:29:42.295Z,5.33
2018-09-09T00:32:10.694Z,4.73
2018-09-09T00:34:39.039Z,5.00
2018-09-09T00:37:07.391Z,5.40
2018-09-09T00:39:35.696Z,4.73
2018-09-09T00:42:04.311Z,4.70
2018-09-09T00:44:32.604Z,5.20
2018-09-09T00:47:01.065Z,4.67
2018-09-09T00:49:35.014Z,4.33
2018-09-09T00:52:09.087Z,5.00
2018-09-09T00:54:37.403Z,5.47
2018-09-09T00:57:05.788Z,4.80
2018-09-09T00:59:34.094Z,5.63
2018-09-09T01:02:02.607Z,5.33
2018-09-09T01:04:30.877Z,5.10
2018-09-09T01:06:59.130Z,5.20
2018-09-09T01:09:31.474Z,5.73
2018-09-09T01:12:00.368Z,4.90
2018-09-09T01:14:28.685Z,6.07
2018-09-09T01:16:57.203Z,4.90
2018-09-09T01:19:25.526Z,5.00
2018-09-09T01:21:53.908Z,5.10
2018-09-09T01:24:22.456Z,5.13
2018-09-09T01:26:50.819Z,4.87
2018-09-09T01:29:19.083Z,5.83
2018-09-09T01:31:47.384Z,4.73
2018-09-09T01:34:15.628Z,5.03
2018-09-09T01:36:43.931Z,5.07
2018-09-09T01:39:12.195Z,4.80
2018-09-09T01:41:40.459Z,5.00
2018-09-09T01:44:08.703Z,4.63
2018-09-09T01:46:36.984Z,4.77
2018-09-09T01:49:05.437Z,5.17
2018-09-09T01:51:33.631Z,5.17
2018-09-09T01:54:01.904Z,4.53
2018-09-09T01:56:30.156Z,5.73
2018-09-09T01:58:58.447Z,5.20
2018-09-09T02:01:26.704Z,5.00
2018-09-09T02:03:55.024Z,6.90
2018-09-09T02:06:23.287Z,5.03
2018-09-09T02:08:51.527Z,5.47
2018-09-09T02:11:19.751Z,4.73
2018-09-09T02:13:48.003Z,5.03
2018-09-09T02:16:16.239Z,5.03
2018-09-09T02:18:44.487Z,4.67
2018-09-09T02:21:12.691Z,5.50
2018-09-09T02:23:40.954Z,4.80
2018-09-09T02:26:09.174Z,4.90
2018-09-09T02:28:37.401Z,5.07
2018-09-09T02:31:05.650Z,5.00
2018-09-09T02:33:33.926Z,4.87
2018-09-09T02:36:02.159Z,4.70
2018-09-09T02:38:30.384Z,5.57
2018-09-09T02:40:58.638Z,5.53
2018-09-09T02:43:26.911Z,6.23
2018-09-09T02:46:01.830Z,5.37
2018-09-09T02:48:30.135Z,5.37
2018-09-09T02:50:58.375Z,4.63
2018-09-09T02:53:26.647Z,4.90
2018-09-09T02:55:54.850Z,5.07
2018-09-09T02:58:23.100Z,6.73
2018-09-09T03:00:51.343Z,5.20
2018-09-09T03:03:19.551Z,6.10
2018-09-09T03:05:47.770Z,6.33
2018-09-09T03:08:15.979Z,5.30
2018-09-09T03:10:44.420Z,5.13
2018-09-09T03:13:12.640Z,5.10
2018-09-09T03:15:40.887Z,5.30
2018-09-09T03:18:09.095Z,5.73
2018-09-09T03:20:37.319Z,5.60
2018-09-09T03:23:05.541Z,5.17
2018-09-09T03:25:33.751Z,6.97
2018-09-09T03:28:02.015Z,7.50
2018-09-09T03:30:30.236Z,4.90
2018-09-09T03:32:58.440Z,5.20
2018-09-09T03:35:26.660Z,5.10
2018-09-09T03:37:54.915Z,7.50
2018-09-09T03:40:23.164Z,4.90
2018-09-09T03:42:51.407Z,5.30
2018-09-09T03:45:19.860Z,4.70
2018-09-09T03:47:48.124Z,4.93
2018-09-09T03:50:16.445Z,5.27
2018-09-09T03:52:44.684Z,5.83
2018-09-09T03:55:12.955Z,5.10
2018-09-09T03:57:41.191Z,5.33
2018-09-09T04:00:09.471Z,5.17
2018-09-09T04:02:37.679Z,5.20
2018-09-09T04:05:06.239Z,5.47
2018-09-09T04:07:34.563Z,4.90
2018-09-09T04:10:02.871Z,5.63
2018-09-09T04:12:31.151Z,4.90
2018-09-09T04:14:59.410Z,4.43
2018-09-09T04:17:27.644Z,5.13
2018-09-09T04:19:55.911Z,5.60
2018-09-09T04:22:24.216Z,5.47
2018-09-09T04:24:52.434Z,5.23
2018-09-09T04:27:20.663Z,5.07
2018-09-09T04:29:48.951Z,5.73
2018-09-09T04:32:17.215Z,5.07
2018-09-09T04:34:45.483Z,5.23
2018-09-09T04:37:13.901Z,5.33
2018-09-09T04:39:42.142Z,4.67
2018-09-09T04:42:10.384Z,5.17
2018-09-09T04:44:38.611Z,4.70
2018-09-09T04:47:06.821Z,4.83
2018-09-09T04:49:35.049Z,5.17
2018-09-09T04:52:03.680Z,4.63
2018-09-09T04:54:31.919Z,5.23
2018-09-09T04:57:00.188Z,4.93
2018-09-09T04:59:28.451Z,4.90
2018-09-09T05:01:56.691Z,5.17
2018-09-09T05:04:24.901Z,6.40
2018-09-09T05:06:53.131Z,5.10
2018-09-09T05:09:21.335Z,6.10
2018-09-09T05:11:49.584Z,5.80
2018-09-09T05:14:35.102Z,4.70
2018-09-09T05:17:03.851Z,4.93
2018-09-09T05:19:32.102Z,4.67
2018-09-09T05:22:00.412Z,4.47
2018-09-09T05:24:28.587Z,4.80
2018-09-09T05:26:56.826Z,5.00
2018-09-09T05:29:25.048Z,4.57
2018-09-09T05:31:53.343Z,4.93
2018-09-09T05:34:21.575Z,7.63
2018-09-09T05:36:49.878Z,4.40
2018-09-09T05:39:18.120Z,4.43
2018-09-09T05:41:46.372Z,4.27
2018-09-09T05:44:14.606Z,4.50
2018-09-09T05:46:42.842Z,5.10
2018-09-09T05:49:11.080Z,4.50
2018-09-09T05:51:39.319Z,4.70
2018-09-09T05:54:07.633Z,6.60
2018-09-09T05:56:35.904Z,4.47
2018-09-09T05:59:04.200Z,4.63
2018-09-09T06:01:32.570Z,4.53
2018-09-09T06:04:00.798Z,4.30
2018-09-09T06:06:29.075Z,4.50
2018-09-09T06:08:57.303Z,4.37
2018-09-09T06:11:25.547Z,4.63
2018-09-09T06:13:54.067Z,4.47
2018-09-09T06:16:22.311Z,5.90
2018-09-09T06:18:50.548Z,4.27
2018-09-09T06:21:18.817Z,4.70
2018-09-09T06:23:47.068Z,4.37
2018-09-09T06:26:15.299Z,4.87
2018-09-09T06:28:43.629Z,10.43
2018-09-09T06:31:11.848Z,7.07
2018-09-09T06:33:40.078Z,7.87
2018-09-09T06:36:08.312Z,9.67
2018-09-09T06:38:36.591Z,16.37
2018-09-09T06:41:05.091Z,20.93
2018-09-09T06:43:33.379Z,20.77
2018-09-09T06:46:01.611Z,23.43
2018-09-09T06:48:29.842Z,19.57
2018-09-09T06:50:58.131Z,17.37
2018-09-09T06:53:26.383Z,14.07
2018-09-09T06:55:54.655Z,9.37
2018-09-09T06:58:22.862Z,9.73
2018-09-09T07:00:51.792Z,14.20
2018-09-09T07:03:20.039Z,12.93
2018-09-09T07:05:48.345Z,11.00
2018-09-09T07:08:16.634Z,12.27
2018-09-09T07:10:44.934Z,10.77
2018-09-09T07:13:13.170Z,14.30
2018-09-09T07:15:41.414Z,13.23
2018-09-09T07:18:09.666Z,12.50
2018-09-09T07:20:37.894Z,12.23
2018-09-09T07:23:06.157Z,11.97
2018-09-09T07:25:34.428Z,13.17
2018-09-09T07:28:02.719Z,14.33
2018-09-09T07:30:31.088Z,13.17
2018-09-09T07:32:59.592Z,14.43
2018-09-09T07:35:28.068Z,19.10
2018-09-09T07:37:56.323Z,18.90
2018-09-09T07:40:24.731Z,17.30
2018-09-09T07:42:53.044Z,19.43
2018-09-09T07:45:21.378Z,19.20
2018-09-09T07:47:49.628Z,20.87
2018-09-09T07:50:17.884Z,21.70
2018-09-09T07:52:46.147Z,22.90
2018-09-09T07:55:14.398Z,22.93
2018-09-09T07:57:42.667Z,18.57
2018-09-09T08:00:10.945Z,24.03
2018-09-09T08:02:39.239Z,17.50
2018-09-09T08:05:07.482Z,15.10
2018-09-09T08:07:35.745Z,20.53
2018-09-09T08:10:04.081Z,19.33
2018-09-09T08:12:32.304Z,15.30
2018-09-09T08:15:09.084Z,11.93
2018-09-09T08:17:37.316Z,10.80
2018-09-09T08:20:05.592Z,11.23
2018-09-09T08:22:33.916Z,9.93
2018-09-09T08:25:02.245Z,10.50
2018-09-09T08:27:30.517Z,8.77
2018-09-09T08:29:58.763Z,8.90
2018-09-09T08:32:27.054Z,9.17
2018-09-09T08:34:55.594Z,8.10
2018-09-09T08:37:23.694Z,7.53
2018-09-09T08:39:52.035Z,7.73
2018-09-09T08:42:20.351Z,7.60
2018-09-09T08:44:48.680Z,13.60
2018-09-09T08:47:16.992Z,11.63
2018-09-09T08:49:45.311Z,10.37
2018-09-09T08:52:13.641Z,12.60
2018-09-09T08:54:41.968Z,12.73
2018-09-09T08:57:10.263Z,14.37
2018-09-09T08:59:38.535Z,9.67
2018-09-09T09:02:06.885Z,8.97
2018-09-09T09:04:35.569Z,9.13
2018-09-09T09:07:04.792Z,9.37
2018-09-09T09:09:33.115Z,27.23
2018-09-09T09:12:05.924Z,18.57
2018-09-09T09:15:11.497Z,14.73
2018-09-09T09:17:39.891Z,10.30
2018-09-09T09:20:08.584Z,9.93
2018-09-09T09:22:37.264Z,7.67
2018-09-09T09:25:05.967Z,8.23
2018-09-09T09:27:36.044Z,7.73
2018-09-09T09:30:04.718Z,8.50
2018-09-09T09:32:33.300Z,9.37
2018-09-09T09:35:01.955Z,7.40
2018-09-09T09:37:30.434Z,9.77
2018-09-09T09:39:59.234Z,9.07
2018-09-09T09:42:27.744Z,9.00
2018-09-09T09:44:56.507Z,8.40
2018-09-09T09:47:25.310Z,8.60
2018-09-09T09:49:54.249Z,7.90
2018-09-09T09:52:23.224Z,9.15
2018-09-09T09:54:52.144Z,9.15
2018-09-09T09:57:21.248Z,8.08
2018-09-09T09:59:50.163Z,6.60
2018-09-09T10:02:18.964Z,6.80
2018-09-09T10:04:48.011Z,7.37
2018-09-09T10:07:16.952Z,8.60
2018-09-09T10:09:45.972Z,6.97
2018-09-09T10:12:15.043Z,5.53
2018-09-09T10:17:50.272Z,7.20
2018-09-09T10:20:19.360Z,6.83
2018-09-09T10:22:48.433Z,4.72
2018-09-09T10:25:17.915Z,4.40
2018-09-09T10:27:46.934Z,4.80
2018-09-09T10:30:15.952Z,6.45
2018-09-09T10:32:44.967Z,4.53
2018-09-09T10:35:14.037Z,4.78
2018-09-09T10:37:43.084Z,4.83
2018-09-09T10:40:12.120Z,5.55
2018-09-09T10:42:41.247Z,4.83
2018-09-09T10:45:10.306Z,3.40
2018-09-09T10:47:39.459Z,3.15
2018-09-09T10:50:08.595Z,3.33
2018-09-09T10:52:37.666Z,3.50
2018-09-09T10:55:06.857Z,4.72
2018-09-09T10:57:36.012Z,3.80
2018-09-09T11:00:05.359Z,4.15
2018-09-09T11:02:34.404Z,4.62
2018-09-09T11:05:03.672Z,3.95
2018-09-09T11:07:32.838Z,3.20
2018-09-09T11:10:01.929Z,4.15
2018-09-09T11:12:31.712Z,3.80
2018-09-09T11:15:36.359Z,3.70
2018-09-09T11:18:05.589Z,3.58
2018-09-09T11:20:34.724Z,3.67
2018-09-09T11:23:03.820Z,4.25
2018-09-09T11:25:32.946Z,3.35
2018-09-09T11:28:02.037Z,3.33
2018-09-09T11:30:32.466Z,5.62
2018-09-09T11:33:01.571Z,3.65
2018-09-09T11:35:30.708Z,5.28
2018-09-09T11:37:59.841Z,7.03
2018-09-09T11:40:28.963Z,3.70
2018-09-09T11:42:58.073Z,4.45
2018-09-09T11:45:27.271Z,4.00
2018-09-09T11:47:56.499Z,4.87
2018-09-09T11:50:25.916Z,3.67
2018-09-09T11:52:55.144Z,4.95
2018-09-09T11:55:24.377Z,3.95
2018-09-09T11:57:53.711Z,3.45
2018-09-09T12:00:22.950Z,4.87
2018-09-09T12:02:52.086Z,4.97
2018-09-09T12:05:21.216Z,3.17
2018-09-09T12:07:50.332Z,3.98
2018-09-09T12:10:19.503Z,3.12
2018-09-09T12:12:48.646Z,3.60
2018-09-09T12:15:57.131Z,3.08
2018-09-09T12:18:26.246Z,3.35
2018-09-09T12:20:55.368Z,3.17
2018-09-09T12:23:24.483Z,3.52
2018-09-09T12:25:53.616Z,3.60
2018-09-09T12:28:22.756Z,3.35
2018-09-09T12:30:51.764Z,3.45
2018-09-09T12:33:20.896Z,2.70
2018-09-09T12:35:49.987Z,3.77
2018-09-09T12:38:19.094Z,3.30
2018-09-09T12:40:48.231Z,3.10
2018-09-09T12:43:22.604Z,5.55
2018-09-09T12:45:57.018Z,5.12
2018-09-09T12:48:31.233Z,3.65
2018-09-09T12:51:00.681Z,3.10
2018-09-09T12:53:29.827Z,3.22
2018-09-09T12:55:59.540Z,2.90
2018-09-09T12:58:28.720Z,3.35
2018-09-09T13:00:57.929Z,2.85
2018-09-09T13:03:27.174Z,3.45
2018-09-09T13:05:56.299Z,3.72
2018-09-09T13:08:25.387Z,3.22
2018-09-09T13:10:54.532Z,3.20
2018-09-09T13:13:23.567Z,4.78
2018-09-09T13:16:09.656Z,4.28
2018-09-09T13:18:38.742Z,3.55
2018-09-09T13:21:07.884Z,2.95
2018-09-09T13:23:37.011Z,4.72
2018-09-09T13:26:06.238Z,3.10
2018-09-09T13:28:35.284Z,3.08
2018-09-09T13:31:04.391Z,3.60
2018-09-09T13:33:33.485Z,3.42
2018-09-09T13:36:02.533Z,3.83
2018-09-09T13:38:31.627Z,3.17
2018-09-09T13:41:01.322Z,3.75
2018-09-09T13:43:30.395Z,3.33
2018-09-09T13:45:59.595Z,2.98
2018-09-09T13:48:28.756Z,2.95
2018-09-09T13:50:57.873Z,4.10
2018-09-09T13:53:27.001Z,3.80
2018-09-09T13:55:56.216Z,3.65
2018-09-09T13:58:25.511Z,2.83
2018-09-09T14:00:54.595Z,3.27
2018-09-09T14:03:23.700Z,3.20
2018-09-09T14:05:52.841Z,3.35
2018-09-09T14:08:22.030Z,2.87
2018-09-09T14:10:51.107Z,4.53
2018-09-09T14:13:20.217Z,3.40
2018-09-09T14:16:18.815Z,2.85
2018-09-09T14:18:47.879Z,3.27
2018-09-09T14:21:16.920Z,3.25
2018-09-09T14:23:46.143Z,2.95
2018-09-09T14:26:19.076Z,3.65
2018-09-09T14:28:48.132Z,3.35
2018-09-09T14:31:18.024Z,3.95
2018-09-09T14:33:47.111Z,4.03
2018-09-09T14:36:16.245Z,3.40
2018-09-09T14:38:45.343Z,3.58
2018-09-09T14:41:14.452Z,4.08
2018-09-09T14:43:43.589Z,3.30
2018-09-09T14:46:12.751Z,2.90
2018-09-09T14:48:41.856Z,3.12
2018-09-09T14:51:10.975Z,2.67
2018-09-09T14:53:40.177Z,5.60
2018-09-09T14:56:10.071Z,3.33
2018-09-09T14:58:39.225Z,4.03
2018-09-09T15:01:08.380Z,3.17
2018-09-09T15:03:37.515Z,5.08
2018-09-09T15:06:06.758Z,4.50
2018-09-09T15:08:35.792Z,4.60
2018-09-09T15:11:04.912Z,2.60
2018-09-09T15:13:34.070Z,3.85
2018-09-09T15:16:32.194Z,3.47
2018-09-09T15:19:01.240Z,3.47
2018-09-09T15:21:30.387Z,4.95
2018-09-09T15:23:59.482Z,5.30
2018-09-09T15:26:28.632Z,3.27
2018-09-09T15:28:57.774Z,3.80
2018-09-09T15:31:26.924Z,5.53
2018-09-09T15:33:55.995Z,5.75
2018-09-09T15:36:25.143Z,5.50
2018-09-09T15:38:54.274Z,5.47
2018-09-09T15:41:23.420Z,7.80
2018-09-09T15:43:53.167Z,3.80
2018-09-09T15:46:22.372Z,3.95
2018-09-09T15:48:51.487Z,5.53
2018-09-09T15:51:21.605Z,3.58
2018-09-09T15:53:50.679Z,3.77
2018-09-09T15:56:19.807Z,3.90
2018-09-09T15:58:48.888Z,3.67
2018-09-09T16:01:17.972Z,4.28
2018-09-09T16:03:47.080Z,4.53
2018-09-09T16:06:16.199Z,5.65
2018-09-09T16:08:45.295Z,4.42
2018-09-09T16:11:22.860Z,3.58
2018-09-09T16:13:51.956Z,4.05
2018-09-09T16:16:42.878Z,3.50
2018-09-09T16:19:11.972Z,3.70
2018-09-09T16:21:41.089Z,3.62
2018-09-09T16:24:10.173Z,4.00
2018-09-09T16:26:40.251Z,3.47
2018-09-09T16:29:09.387Z,3.80
2018-09-09T16:31:38.519Z,3.80
2018-09-09T16:34:07.611Z,4.70
2018-09-09T16:36:36.729Z,5.42
2018-09-09T16:39:07.419Z,5.80
2018-09-09T16:41:36.516Z,4.17
2018-09-09T16:44:06.765Z,4.55
2018-09-09T16:46:35.907Z,4.50
2018-09-09T16:49:05.107Z,7.87
2018-09-09T16:51:34.203Z,4.28
2018-09-09T16:54:03.299Z,4.90
2018-09-09T16:56:32.419Z,10.13
2018-09-09T16:59:01.498Z,5.97
2018-09-09T17:01:31.601Z,5.42
2018-09-09T17:04:00.761Z,4.72
2018-09-09T17:06:30.475Z,4.53
2018-09-09T17:08:59.629Z,8.70
2018-09-09T17:11:28.755Z,9.53
2018-09-09T17:13:58.801Z,4.92
2018-09-09T17:16:53.977Z,6.50
2018-09-09T17:19:23.708Z,7.60
2018-09-09T17:21:52.888Z,5.80
2018-09-09T17:24:22.023Z,7.30
2018-09-09T17:26:51.263Z,5.30
2018-09-09T17:29:20.388Z,5.40
2018-09-09T17:31:50.019Z,5.35
2018-09-09T17:34:19.599Z,4.92
2018-09-09T17:36:48.740Z,4.53
2018-09-09T17:39:18.053Z,7.37
2018-09-09T17:41:47.196Z,4.12
2018-09-09T17:44:16.354Z,5.40
2018-09-09T17:46:45.519Z,4.10
2018-09-09T17:49:14.616Z,5.35
2018-09-09T17:51:44.300Z,4.17
2018-09-09T17:54:13.444Z,4.80
2018-09-09T17:56:43.511Z,7.60
2018-09-09T17:59:12.630Z,7.90
2018-09-09T18:01:41.732Z,8.80
2018-09-09T18:04:11.458Z,9.60
2018-09-09T18:06:41.402Z,11.88
2018-09-09T18:09:10.752Z,8.80
2018-09-09T18:11:39.953Z,6.17
2018-09-09T18:14:15.294Z,6.15
2018-09-09T18:17:07.480Z,4.15
2018-09-09T18:19:36.604Z,4.65
2018-09-09T18:22:06.187Z,4.60
2018-09-09T18:24:35.303Z,4.47
2018-09-09T18:27:05.967Z,4.47
2018-09-09T18:29:35.187Z,4.90
2018-09-09T18:32:04.583Z,5.55
2018-09-09T18:34:33.747Z,3.75
2018-09-09T18:37:04.125Z,4.65
2018-09-09T18:39:33.240Z,4.08
2018-09-09T18:42:02.404Z,3.90
2018-09-09T18:44:32.427Z,4.20
2018-09-09T18:47:01.578Z,3.90
2018-09-09T18:49:30.731Z,5.35
2018-09-09T18:52:00.475Z,3.45
2018-09-09T18:54:30.572Z,4.05
2018-09-09T18:56:59.718Z,4.20
2018-09-09T18:59:28.931Z,5.87
2018-09-09T19:01:59.000Z,5.17
2018-09-09T19:04:28.134Z,5.35
2018-09-09T19:06:57.239Z,6.43
2018-09-09T19:09:26.354Z,6.50
2018-09-09T19:11:56.456Z,4.33
2018-09-09T19:14:51.691Z,4.03
2018-09-09T19:17:24.482Z,6.73
2018-09-09T19:19:54.437Z,17.37
2018-09-09T19:22:23.578Z,7.30
2018-09-09T19:24:52.749Z,5.33
2018-09-09T19:27:21.948Z,3.77
2018-09-09T19:29:51.155Z,3.80
2018-09-09T19:32:20.339Z,5.03
2018-09-09T19:34:49.474Z,3.80
2018-09-09T19:37:20.262Z,4.33
2018-09-09T19:39:51.270Z,4.33
2018-09-09T19:42:21.238Z,3.77
2018-09-09T19:44:50.391Z,3.77
2018-09-09T19:47:19.583Z,4.40
2018-09-09T19:49:48.704Z,5.30
2018-09-09T19:52:17.918Z,4.53
2018-09-09T19:54:47.071Z,4.10
2018-09-09T19:57:16.256Z,4.10
2018-09-09T19:59:45.412Z,4.20
2018-09-09T20:02:14.548Z,6.23
2018-09-09T20:04:43.729Z,4.57
2018-09-09T20:07:12.837Z,5.10
2018-09-09T20:09:41.955Z,3.90
2018-09-09T20:12:11.092Z,7.07
2018-09-09T20:15:12.885Z,6.13
2018-09-09T20:17:42.171Z,5.23
2018-09-09T20:20:11.308Z,5.10
2018-09-09T20:22:40.472Z,4.10
2018-09-09T20:25:09.604Z,4.00
2018-09-09T20:28:21.744Z,5.43
2018-09-09T20:30:50.896Z,4.23
2018-09-09T20:33:20.031Z,3.80
2018-09-09T20:35:49.167Z,6.50
2018-09-09T20:38:18.299Z,4.00
2018-09-09T20:40:54.517Z,4.87
2018-09-09T20:43:23.686Z,3.87
2018-09-09T20:45:52.809Z,4.00
2018-09-09T20:48:21.927Z,5.97
2018-09-09T20:50:51.107Z,4.27
2018-09-09T20:53:20.322Z,4.37
2018-09-09T20:55:49.416Z,5.13
2018-09-09T20:58:18.564Z,4.30
2018-09-09T21:00:47.701Z,4.60
2018-09-09T21:03:16.792Z,4.10
2018-09-09T21:05:45.856Z,4.33
2018-09-09T21:08:14.983Z,4.97
2018-09-09T21:10:44.095Z,9.17
2018-09-09T21:13:13.183Z,4.53
2018-09-09T21:19:15.223Z,4.53
2018-09-09T21:21:44.263Z,4.47
2018-09-09T21:24:13.282Z,6.90
2018-09-09T21:26:42.358Z,5.87
2018-09-09T21:29:11.404Z,5.33
2018-09-09T21:31:40.447Z,4.03
2018-09-09T21:34:09.523Z,4.37
2018-09-09T21:36:38.511Z,4.33
2018-09-09T21:39:09.707Z,4.27
2018-09-09T21:41:39.271Z,3.90
2018-09-09T21:44:08.507Z,3.87
2018-09-09T21:46:37.495Z,4.63
2018-09-09T21:49:06.635Z,4.10
2018-09-09T21:51:35.243Z,4.13
2018-09-09T21:54:04.073Z,4.37
2018-09-09T21:56:32.531Z,4.33
2018-09-09T21:59:00.834Z,4.40
2018-09-09T22:01:34.524Z,4.10
2018-09-09T22:04:02.892Z,4.50
2018-09-09T22:06:31.231Z,4.37
2018-09-09T22:08:59.559Z,4.10
2018-09-09T22:11:27.834Z,4.27
2018-09-09T22:13:56.193Z,4.13
2018-09-09T22:16:24.591Z,4.77
2018-09-09T22:18:52.911Z,6.17
2018-09-09T22:21:21.275Z,4.10
2018-09-09T22:23:49.698Z,4.43
2018-09-09T22:26:17.915Z,4.53
2018-09-09T22:28:46.976Z,5.63
2018-09-09T22:31:15.330Z,4.37
2018-09-09T22:33:43.659Z,4.40
2018-09-09T22:36:11.955Z,4.80
2018-09-09T22:38:40.215Z,4.30
2018-09-09T22:41:08.533Z,4.27
2018-09-09T22:43:36.871Z,4.03
2018-09-09T22:46:05.304Z,4.37
2018-09-09T22:48:33.706Z,3.70
2018-09-09T22:51:01.998Z,4.20
2018-09-09T22:53:30.335Z,4.83
2018-09-09T22:55:58.647Z,4.50
2018-09-09T22:58:26.959Z,4.30
2018-09-09T23:00:55.362Z,4.10
2018-09-09T23:03:23.695Z,4.20
2018-09-09T23:05:52.034Z,4.57
2018-09-09T23:08:20.355Z,3.97
2018-09-09T23:10:48.619Z,4.17
2018-09-09T23:13:16.876Z,4.40
2018-09-09T23:15:45.168Z,3.67
2018-09-09T23:18:13.531Z,4.17
2018-09-09T23:20:41.795Z,4.70
2018-09-09T23:23:10.047Z,4.80
2018-09-09T23:25:38.344Z,4.57
2018-09-09T23:28:06.692Z,4.17
2018-09-09T23:30:34.968Z,5.40
2018-09-09T23:33:03.255Z,4.17
2018-09-09T23:35:31.491Z,4.40
2018-09-09T23:37:59.746Z,4.83
2018-09-09T23:40:28.023Z,4.07
2018-09-09T23:42:56.343Z,4.07
2018-09-09T23:45:24.698Z,4.57
2018-09-09T23:47:52.999Z,3.97
2018-09-09T23:50:21.340Z,4.77
2018-09-09T23:52:49.597Z,4.67
2018-09-09T23:55:18.017Z,4.17
2018-09-09T23:57:46.359Z,4.53
